Time;durP1;ratioP1;P1;durP2;ratioP2;P2;SDS_P1;SDS_P2;PMS_P1;PMS_P2;Temp;Humidity;BMP_temperature;BMP_pressure;BME280_temperature;BME280_humidity;BME280_pressure;Samples;Min_cycle;Max_cycle;Signal;HPM_P1;HPM_P2
2023/05/17 00:01:13;;;;;;;;;0.00;0.00;;;;;19.03;36.92;102448.38;6304933;22;45220;-75
2023/05/17 00:03:38;;;;;;;;;2.25;0.75;;;;;18.91;36.81;102437.00;6305201;22;45273;-76
2023/05/17 00:06:04;;;;;;;;;2.25;1.25;;;;;18.98;37.10;102456.66;6305704;22;45229;-75
2023/05/17 00:08:30;;;;;;;;;0.75;0.75;;;;;18.93;36.95;102457.00;6304859;22;46081;-75
2023/05/17 00:10:56;;;;;;;;;1.50;1.50;;;;;18.90;37.24;102451.13;6304293;22;45320;-75
2023/05/17 00:13:21;;;;;;;;;2.00;2.00;;;;;18.87;37.35;102451.34;6305512;22;45351;-75
2023/05/17 00:15:46;;;;;;;;;3.25;1.75;;;;;18.69;37.64;102423.66;6304697;22;45392;-75
2023/05/17 00:18:12;;;;;;;;;1.00;0.50;;;;;18.81;37.36;102445.59;6304895;22;46189;-75
2023/05/17 00:20:37;;;;;;;;;2.75;1.75;;;;;18.79;37.43;102450.16;6304811;22;45356;-76
2023/05/17 00:23:03;;;;;;;;;1.00;0.75;;;;;18.75;37.44;102438.19;6305535;22;45374;-76
2023/05/17 00:25:28;;;;;;;;;3.00;1.75;;;;;18.64;37.60;102424.97;6304666;22;45456;-76
2023/05/17 00:27:54;;;;;;;;;3.50;1.50;;;;;18.70;37.50;102446.47;6304811;22;47106;-76
2023/05/17 00:30:19;;;;;;;;;2.50;1.75;;;;;18.67;37.35;102440.56;6305095;22;45296;-75
2023/05/17 00:32:45;;;;;;;;;2.00;2.00;;;;;18.58;37.97;102424.50;6305457;22;45250;-75
2023/05/17 00:35:11;;;;;;;;;0.75;0.75;;;;;18.62;37.66;102430.38;6305449;22;45260;-76
2023/05/17 00:37:36;;;;;;;;;2.00;1.75;;;;;18.56;37.63;102428.19;6304549;22;46210;-75
2023/05/17 00:40:04;;;;;;;;;4.67;1.00;;;;;18.57;37.99;102436.00;6304407;22;45264;-75
2023/05/17 00:42:29;;;;;;;;;1.25;1.25;;;;;18.54;37.98;102430.97;6304903;22;45216;-76
2023/05/17 00:44:55;;;;;;;;;3.00;0.75;;;;;18.55;38.14;102439.72;6304821;22;45368;-75
2023/05/17 00:47:20;;;;;;;;;2.25;2.25;;;;;18.52;37.63;102443.44;6304677;22;47122;-75
2023/05/17 00:49:46;;;;;;;;;2.75;1.25;;;;;18.37;37.78;102414.63;6304499;22;45231;-75
2023/05/17 00:52:11;;;;;;;;;1.25;1.25;;;;;18.44;38.05;102432.63;6304621;22;45283;-75
2023/05/17 00:54:37;;;;;;;;;1.00;1.00;;;;;18.45;37.97;102443.03;6305417;22;45457;-76
2023/05/17 00:57:04;;;;;;;;;5.00;0.50;;;;;18.45;38.12;102450.13;6304681;22;46552;-76
2023/05/17 00:59:30;;;;;;;;;4.00;1.75;;;;;18.40;37.86;102443.41;6304674;22;45240;-75
2023/05/17 01:01:56;;;;;;;;;2.00;2.00;;;;;18.41;38.41;102446.88;6304793;22;45174;-75
2023/05/17 01:04:22;;;;;;;;;3.50;1.00;;;;;18.40;38.07;102447.81;6305304;22;45227;-75
2023/05/17 01:06:48;;;;;;;;;3.50;2.00;;;;;18.38;38.58;102439.19;6304445;22;45283;-76
2023/05/17 01:09:13;;;;;;;;;2.50;2.00;;;;;18.33;38.36;102436.91;6304657;22;45366;-74
2023/05/17 01:11:46;;;;;;;;;2.50;1.00;;;;;18.32;38.39;102445.78;6305186;22;45405;-76
2023/05/17 01:14:55;;;;;;;;;4.25;3.25;;;;;18.28;38.25;102434.63;6304802;22;45439;-76
2023/05/17 01:17:49;;;;;;;;;5.00;2.00;;;;;18.24;38.29;102442.91;6290016;22;46144;-76
2023/05/17 01:20:26;;;;;;;;;3.50;2.00;;;;;18.19;38.04;102440.56;6304471;22;45397;-76
2023/05/17 01:23:25;;;;;;;;;4.75;2.50;;;;;18.16;38.15;102446.88;6304715;22;45300;-75
2023/05/17 01:26:04;;;;;;;;;3.00;1.00;;;;;18.12;38.12;102445.44;6304613;22;45498;-75
2023/05/17 01:28:31;;;;;;;;;1.75;1.75;;;;;18.10;38.11;102441.25;6304880;22;45382;-75
2023/05/17 01:31:00;;;;;;;;;2.50;1.50;;;;;18.09;38.35;102453.56;6304792;22;45686;-76
2023/05/17 01:33:25;;;;;;;;;2.00;2.00;;;;;18.09;38.25;102453.56;6305259;22;45298;-75
2023/05/17 01:35:50;;;;;;;;;2.00;2.00;;;;;17.90;38.37;102430.41;6304800;22;45294;-76
2023/05/17 01:38:16;;;;;;;;;1.00;1.00;;;;;18.04;38.26;102463.63;6304166;22;63925;-76
2023/05/17 01:40:53;;;;;;;;;3.00;1.00;;;;;18.03;38.73;102452.22;6304580;22;45308;-76
2023/05/17 01:43:32;;;;;;;;;1.00;1.00;;;;;18.01;38.57;102463.84;6305344;22;45293;-76
2023/05/17 01:46:28;;;;;;;;;2.00;1.75;;;;;18.00;38.84;102464.81;6304869;22;45250;-75
2023/05/17 01:49:08;;;;;;;;;2.00;2.00;;;;;17.96;38.43;102464.19;6304257;22;46260;-76
2023/05/17 01:51:43;;;;;;;;;1.25;1.25;;;;;17.94;38.95;102464.31;6303755;22;45540;-75
2023/05/17 01:54:11;;;;;;;;;3.00;2.00;;;;;17.85;38.45;102462.34;6304631;22;45256;-75
2023/05/17 01:56:41;;;;;;;;;1.00;1.00;;;;;17.86;38.93;102469.28;6304614;22;45235;-74
2023/05/17 01:59:10;;;;;;;;;3.50;2.50;;;;;17.87;38.52;102473.59;6304732;22;45280;-76
2023/05/17 02:01:36;;;;;;;;;1.50;1.50;;;;;17.81;39.17;102467.00;6304309;22;45301;-76
2023/05/17 02:04:02;;;;;;;;;3.00;2.00;;;;;17.83;38.86;102477.41;6304604;22;45280;-75
2023/05/17 02:06:27;;;;;;;;;2.75;2.75;;;;;17.80;38.81;102483.72;6303931;22;45261;-76
2023/05/17 02:08:53;;;;;;;;;2.00;2.00;;;;;17.79;38.58;102483.84;6304053;22;46966;-75
2023/05/17 02:11:18;;;;;;;;;5.50;2.50;;;;;17.78;38.52;102476.91;6304671;22;45415;-76
2023/05/17 02:13:43;;;;;;;;;1.75;1.75;;;;;17.70;38.67;102467.75;6304677;22;45454;-75
2023/05/17 02:16:08;;;;;;;;;2.00;2.00;;;;;17.74;38.84;102473.66;6304929;22;45435;-75
2023/05/17 02:18:36;;;;;;;;;4.00;3.00;;;;;17.75;39.12;102474.50;6304812;22;46533;-75
2023/05/17 02:21:01;;;;;;;;;2.00;2.00;;;;;17.73;39.14;102475.44;6303994;22;45403;-75
2023/05/17 02:23:27;;;;;;;;;3.75;3.75;;;;;17.71;38.99;102476.50;6304882;22;45141;-75
2023/05/17 02:25:52;;;;;;;;;4.75;3.00;;;;;17.70;38.67;102474.81;6303080;22;45251;-75
2023/05/17 02:28:17;;;;;;;;;2.00;2.00;;;;;17.70;39.02;102473.03;6304642;22;46048;-76
2023/05/17 02:30:44;;;;;;;;;2.00;2.00;;;;;17.67;38.52;102475.06;6304709;22;45166;-75
2023/05/17 02:33:10;;;;;;;;;3.75;2.00;;;;;17.66;39.01;102481.25;6304465;22;45220;-75
2023/05/17 02:35:35;;;;;;;;;4.00;1.75;;;;;17.64;38.86;102472.66;6304212;22;45403;-76
2023/05/17 02:38:01;;;;;;;;;5.75;2.50;;;;;17.53;38.85;102452.34;6304857;22;45276;-75
2023/05/17 02:40:26;;;;;;;;;3.00;3.00;;;;;17.60;39.10;102464.97;6304749;22;45325;-75
2023/05/17 02:42:51;;;;;;;;;5.50;3.00;;;;;17.61;38.97;102471.06;6304783;22;45248;-75
2023/05/17 02:45:17;;;;;;;;;9.75;4.00;;;;;17.53;39.06;102462.88;6304273;22;45366;-75
2023/05/17 02:47:42;;;;;;;;;3.00;3.00;;;;;17.55;39.29;102456.56;6303736;22;46977;-75
2023/05/17 02:50:08;;;;;;;;;3.50;2.50;;;;;17.58;39.29;102463.38;6303528;22;45264;-76
2023/05/17 02:52:33;;;;;;;;;2.00;2.00;;;;;17.58;38.85;102473.91;6304745;22;45296;-76
2023/05/17 02:54:59;;;;;;;;;1.00;1.00;;;;;17.51;39.10;102468.28;6304729;22;45265;-75
2023/05/17 02:57:24;;;;;;;;;3.00;2.25;;;;;17.38;39.37;102444.63;6304193;22;46221;-75
2023/05/17 02:59:50;;;;;;;;;4.25;3.00;;;;;17.52;39.26;102472.56;6304313;22;45198;-75
2023/05/17 03:02:15;;;;;;;;;3.25;3.25;;;;;17.50;38.80;102466.56;6304530;22;45445;-76
2023/05/17 03:04:40;;;;;;;;;4.00;4.00;;;;;17.48;39.07;102466.69;6304390;22;45237;-75
2023/05/17 03:07:06;;;;;;;;;1.75;1.75;;;;;17.46;38.91;102470.38;6303474;22;45287;-76
2023/05/17 03:09:31;;;;;;;;;2.00;1.75;;;;;17.47;39.08;102477.31;6304342;22;45300;-75
2023/05/17 03:11:56;;;;;;;;;3.00;1.75;;;;;17.44;39.02;102481.00;6304695;22;45181;-76
2023/05/17 03:14:22;;;;;;;;;2.00;2.00;;;;;17.44;39.42;102485.41;6304626;22;45352;-76
2023/05/17 03:16:47;;;;;;;;;1.75;1.75;;;;;17.43;39.26;102489.88;6304336;22;46205;-76
2023/05/17 03:19:12;;;;;;;;;3.25;1.25;;;;;17.40;39.50;102482.19;6303976;22;45219;-75
2023/05/17 03:21:38;;;;;;;;;3.00;3.00;;;;;17.31;39.32;102467.03;6304250;22;45197;-75
2023/05/17 03:24:03;;;;;;;;;3.00;3.00;;;;;17.36;39.65;102478.91;6304477;22;45212;-75
2023/05/17 03:26:30;;;;;;;;;3.50;3.50;;;;;17.39;39.81;102480.50;6303718;22;47027;-75
2023/05/17 03:28:56;;;;;;;;;3.75;3.00;;;;;17.39;39.90;102488.38;6303896;22;45324;-75
2023/05/17 03:31:21;;;;;;;;;4.00;3.50;;;;;17.37;39.86;102488.50;6303782;22;45244;-75
2023/05/17 03:33:47;;;;;;;;;6.75;5.25;;;;;17.04;39.91;102443.38;6303750;22;45725;-75
2023/05/17 03:36:12;;;;;;;;;4.25;3.75;;;;;17.24;39.62;102483.25;6304224;22;45348;-76
2023/05/17 03:38:37;;;;;;;;;5.50;3.00;;;;;17.25;39.44;102486.75;6303655;22;45331;-75
2023/05/17 03:41:03;;;;;;;;;4.25;2.75;;;;;17.28;39.97;102495.25;6303837;22;45372;-76
2023/05/17 03:43:28;;;;;;;;;4.00;3.00;;;;;17.24;39.85;102493.78;6303874;22;45319;-75
2023/05/17 03:45:54;;;;;;;;;4.00;2.00;;;;;17.30;39.73;102502.19;6303419;22;46051;-75
2023/05/17 03:48:19;;;;;;;;;4.25;3.00;;;;;17.27;39.64;102505.88;6303319;22;45320;-75
2023/05/17 03:50:44;;;;;;;;;2.50;2.50;;;;;17.24;39.96;102501.69;6303645;22;45238;-75
2023/05/17 03:53:10;;;;;;;;;3.00;3.00;;;;;17.13;39.61;102486.59;6302162;22;45234;-75
2023/05/17 03:55:35;;;;;;;;;4.50;3.00;;;;;17.22;39.82;102506.22;6302965;22;55631;-76
2023/05/17 03:58:00;;;;;;;;;3.00;3.00;;;;;17.17;39.83;102500.44;6304181;22;45300;-75
2023/05/17 04:00:26;;;;;;;;;4.75;3.00;;;;;17.20;39.92;102513.34;6303974;22;45292;-75
2023/05/17 04:02:51;;;;;;;;;2.50;2.50;;;;;17.19;39.83;102513.47;6303226;22;45261;-75
2023/05/17 04:05:17;;;;;;;;;3.00;3.00;;;;;17.17;39.75;102511.75;6303795;22;45218;-75
2023/05/17 04:07:42;;;;;;;;;5.75;2.75;;;;;17.18;40.09;102520.50;6303752;22;45237;-76
2023/05/17 04:10:09;;;;;;;;;4.25;2.50;;;;;17.19;39.66;102522.19;6303502;22;45510;-76
2023/05/17 04:12:35;;;;;;;;;4.75;3.00;;;;;17.19;39.88;102523.97;6303651;22;45404;-76
2023/05/17 04:15:00;;;;;;;;;2.25;2.25;;;;;17.19;40.24;102518.72;6303575;22;45348;-76
2023/05/17 04:17:26;;;;;;;;;3.25;2.75;;;;;17.15;40.18;102518.06;6302937;22;45324;-75
2023/05/17 04:19:52;;;;;;;;;4.25;3.25;;;;;17.03;39.99;102504.81;6305122;22;45258;-76
2023/05/17 04:22:18;;;;;;;;;4.75;3.00;;;;;17.14;40.11;102521.66;6304998;22;45291;-75
2023/05/17 04:24:44;;;;;;;;;2.75;2.25;;;;;17.13;40.35;102530.47;6305292;22;46018;-75
2023/05/17 04:27:09;;;;;;;;;6.25;2.75;;;;;17.03;39.74;102520.59;6304695;22;45361;-75
2023/05/17 04:29:35;;;;;;;;;4.00;3.00;;;;;17.12;40.28;102537.50;6305097;22;45360;-75
2023/05/17 04:32:00;;;;;;;;;3.25;3.00;;;;;17.09;40.24;102534.28;6305094;22;45209;-75
2023/05/17 04:34:25;;;;;;;;;3.75;1.75;;;;;17.08;40.18;102537.84;6305209;22;45201;-75
2023/05/17 04:36:51;;;;;;;;;6.25;4.00;;;;;17.07;39.60;102539.63;6305156;22;45186;-76
2023/05/17 04:39:17;;;;;;;;;10.00;5.00;;;;;17.07;40.01;102544.88;6304990;22;45331;-75
2023/05/17 04:41:42;;;;;;;;;4.75;4.75;;;;;17.03;39.87;102530.25;6304901;22;45219;-75
2023/05/17 04:44:07;;;;;;;;;5.00;3.75;;;;;17.05;40.24;102539.72;6305209;22;45827;-76
2023/05/17 04:46:33;;;;;;;;;2.75;2.75;;;;;17.11;39.74;102550.78;6305138;22;45199;-75
2023/05/17 04:48:59;;;;;;;;;5.00;3.75;;;;;17.11;40.38;102550.78;6305246;22;45231;-75
2023/05/17 04:51:25;;;;;;;;;6.00;5.00;;;;;17.12;40.25;102561.19;6305106;22;45549;-76
2023/05/17 04:53:51;;;;;;;;;5.50;4.00;;;;;17.10;40.19;102557.81;6304684;22;46301;-75
2023/05/17 04:56:17;;;;;;;;;4.00;4.00;;;;;17.08;40.07;102558.88;6303877;22;45595;-75
2023/05/17 04:58:42;;;;;;;;;4.50;4.50;;;;;16.98;39.75;102541.09;6304871;22;45352;-75
2023/05/17 05:01:08;;;;;;;;;5.00;4.00;;;;;17.02;40.17;102549.59;6304458;22;45345;-75
2023/05/17 05:03:33;;;;;;;;;6.75;6.00;;;;;17.15;39.94;102568.03;6304747;22;45252;-75
2023/05/17 05:05:58;;;;;;;;;3.00;2.00;;;;;17.16;39.80;102575.00;6305055;22;45351;-75
2023/05/17 05:08:24;;;;;;;;;5.00;3.50;;;;;17.12;40.08;102563.81;6304309;22;47119;-75
2023/05/17 05:10:50;;;;;;;;;4.50;3.00;;;;;17.22;39.91;102582.50;6304313;22;45564;-75
2023/05/17 05:13:15;;;;;;;;;7.00;5.00;;;;;17.26;39.94;102589.22;6303946;22;46474;-75
2023/05/17 05:15:41;;;;;;;;;5.50;5.50;;;;;17.18;40.32;102573.13;6304304;22;45270;-75
2023/05/17 05:18:06;;;;;;;;;4.50;4.00;;;;;17.35;39.72;102597.44;6305285;22;45261;-75
2023/05/17 05:20:31;;;;;;;;;6.75;4.50;;;;;17.42;39.72;102603.09;6304610;22;45213;-75
2023/05/17 05:22:57;;;;;;;;;5.00;4.00;;;;;17.43;39.99;102600.38;6304581;22;46848;-75
2023/05/17 05:25:23;;;;;;;;;3.25;3.25;;;;;17.44;39.94;102609.09;6304621;22;45686;-75
2023/05/17 05:27:48;;;;;;;;;7.25;3.25;;;;;17.45;39.51;102606.38;6302489;22;45226;-75
2023/05/17 05:30:20;;;;;;;;;4.00;4.00;;;;;17.37;39.87;102592.91;6303861;22;45266;-75
2023/05/17 05:32:49;;;;;;;;;3.50;3.50;;;;;17.58;40.19;102608.16;6304014;22;46155;-73
2023/05/17 05:35:15;;;;;;;;;5.50;3.25;;;;;17.65;39.71;102595.41;6304932;22;45244;-75
2023/05/17 05:37:41;;;;;;;;;5.50;4.00;;;;;17.95;39.70;102607.38;6304986;22;45323;-75
2023/05/17 05:40:07;;;;;;;;;4.25;3.00;;;;;18.25;39.40;102603.50;6303740;22;45500;-74
2023/05/17 05:42:33;;;;;;;;;4.25;4.25;;;;;18.65;39.35;102617.34;6303714;22;47008;-74
2023/05/17 05:44:58;;;;;;;;;3.00;2.75;;;;;19.03;39.08;102622.47;6304509;22;45363;-74
2023/05/17 05:47:24;;;;;;;;;6.00;2.75;;;;;19.42;38.46;102616.94;6304025;22;45556;-75
2023/05/17 05:49:49;;;;;;;;;1.75;1.00;;;;;19.72;38.01;102615.47;6304194;22;45333;-74
2023/05/17 05:52:14;;;;;;;;;3.00;3.00;;;;;19.98;37.48;102618.84;6304210;22;46130;-75
2023/05/17 05:54:40;;;;;;;;;5.25;2.00;;;;;20.24;37.25;102618.56;6304305;22;45273;-74
2023/05/17 05:57:05;;;;;;;;;3.50;3.50;;;;;20.54;37.04;102632.88;6304592;22;45397;-75
2023/05/17 05:59:30;;;;;;;;;3.50;1.75;;;;;20.79;36.61;102644.06;6302942;22;45252;-74
2023/05/17 06:01:56;;;;;;;;;4.50;2.00;;;;;21.03;36.54;102635.06;6304215;22;52130;-75
2023/05/17 06:04:21;;;;;;;;;1.50;1.00;;;;;21.27;35.98;102633.94;6303915;22;45401;-80
2023/05/17 06:06:46;;;;;;;;;3.00;3.00;;;;;21.63;36.01;102636.19;6305044;22;45753;-79
2023/05/17 06:09:12;;;;;;;;;3.25;3.25;;;;;21.65;35.58;102598.97;6302858;22;45568;-79
2023/05/17 06:11:38;;;;;;;;;3.00;1.00;;;;;22.02;34.94;102634.66;6303909;22;47456;-79
2023/05/17 06:14:03;;;;;;;;;6.67;3.00;;;;;22.29;34.72;102656.19;6304727;22;45258;-80
2023/05/17 06:16:28;;;;;;;;;2.33;2.33;;;;;22.50;34.80;102649.94;6304818;22;45257;-80
2023/05/17 06:18:53;;;;;;;;;2.33;2.33;;;;;22.62;34.61;102640.00;6305190;22;45289;-77
2023/05/17 06:21:19;;;;;;;;;3.33;3.33;;;;;22.78;34.43;102650.09;6304543;22;47155;-79
2023/05/17 06:23:44;;;;;;;;;3.00;3.00;;;;;22.94;33.62;102649.50;6302461;22;45242;-79
2023/05/17 06:26:10;;;;;;;;;2.00;2.00;;;;;23.12;33.81;102658.53;6304908;22;45247;-81
2023/05/17 06:28:36;;;;;;;;;3.00;1.67;;;;;23.12;33.32;102656.75;6303143;22;45454;-79
2023/05/17 06:31:01;;;;;;;;;2.00;2.00;;;;;23.06;33.44;102654.63;6303960;22;47479;-79
2023/05/17 06:33:27;;;;;;;;;1.00;1.00;;;;;23.02;33.36;102654.09;6300426;22;45296;-80
2023/05/17 06:35:54;;;;;;;;;2.67;2.00;;;;;22.97;33.55;102653.69;6304612;22;45261;-79
2023/05/17 06:38:19;;;;;;;;;4.67;3.00;;;;;22.83;33.40;102653.16;6304615;22;45253;-80
2023/05/17 06:40:44;;;;;;;;;1.00;0.00;;;;;22.88;33.44;102658.03;6303202;22;46110;-80
2023/05/17 06:43:10;;;;;;;;;2.67;2.67;;;;;22.87;33.40;102668.81;6304894;22;45240;-79
2023/05/17 06:45:35;;;;;;;;;4.00;1.00;;;;;22.84;33.18;102672.56;6304389;22;45213;-79
2023/05/17 06:48:00;;;;;;;;;3.00;2.33;;;;;22.62;33.22;102640.00;6304832;22;45427;-80
2023/05/17 06:50:27;;;;;;;;;3.00;1.33;;;;;22.74;33.06;102664.63;6303777;22;52190;-80
2023/05/17 06:52:52;;;;;;;;;3.00;3.00;;;;;22.62;33.13;102654.13;6303945;22;45332;-81
2023/05/17 06:55:18;;;;;;;;;2.33;1.67;;;;;22.43;32.91;102631.06;6304219;22;45258;-79
2023/05/17 06:57:43;;;;;;;;;3.00;2.67;;;;;22.66;33.35;102672.41;6304478;22;45451;-79
2023/05/17 07:00:09;;;;;;;;;1.75;1.75;;;;;22.70;32.72;102673.81;6303856;22;47196;-79
2023/05/17 07:02:35;;;;;;;;;1.33;1.00;;;;;22.68;33.07;102687.22;6304500;22;45296;-79
2023/05/17 07:05:01;;;;;;;;;3.00;2.00;;;;;22.64;33.22;102685.81;6303571;22;45249;-79
2023/05/17 07:07:26;;;;;;;;;5.33;2.33;;;;;22.52;32.89;102678.00;6304327;22;45325;-80
2023/05/17 07:09:52;;;;;;;;;2.33;2.00;;;;;22.57;32.53;102687.34;6303904;22;46101;-79
2023/05/17 07:12:17;;;;;;;;;2.67;2.00;;;;;22.52;32.43;102677.16;6304304;22;45448;-79
2023/05/17 07:14:42;;;;;;;;;1.00;1.00;;;;;22.55;32.47;102681.34;6304374;22;46879;-79
2023/05/17 07:17:10;;;;;;;;;2.00;2.00;;;;;22.57;32.72;102687.34;6304232;22;45372;-79
2023/05/17 07:19:35;;;;;;;;;2.00;1.00;;;;;22.57;32.33;102688.19;6304095;22;45280;-78
2023/05/17 07:22:01;;;;;;;;;1.00;1.00;;;;;22.58;32.49;102689.03;6303742;22;45246;-79
2023/05/17 07:24:26;;;;;;;;;1.00;1.00;;;;;22.52;32.12;102671.84;6303655;22;45254;-79
2023/05/17 07:26:51;;;;;;;;;0.33;0.33;;;;;22.55;32.06;102678.69;6304386;22;45225;-79
2023/05/17 07:29:17;;;;;;;;;1.00;0.33;;;;;22.47;31.38;102674.91;6303683;22;47005;-79
2023/05/17 07:31:42;;;;;;;;;1.00;1.00;;;;;22.52;31.36;102678.00;6303612;22;45262;-79
2023/05/17 07:34:07;;;;;;;;;0.67;0.67;;;;;22.50;31.48;102679.94;6302151;22;45206;-79
2023/05/17 07:36:33;;;;;;;;;1.00;1.00;;;;;22.56;31.15;102681.19;6304406;22;45183;-79
2023/05/17 07:38:58;;;;;;;;;1.00;1.00;;;;;22.56;31.07;102672.41;6303396;22;45818;-79
2023/05/17 07:41:24;;;;;;;;;1.00;1.00;;;;;22.46;30.74;102659.97;6303889;22;45238;-79
2023/05/17 07:43:50;;;;;;;;;1.00;0.00;;;;;22.51;30.24;102675.47;6303707;22;45267;-79
2023/05/17 07:46:16;;;;;;;;;2.00;1.00;;;;;22.60;30.27;102684.41;6304002;22;45324;-79
2023/05/17 07:48:41;;;;;;;;;2.00;0.67;;;;;22.60;30.07;102687.91;6302485;22;45309;-79
2023/05/17 07:51:06;;;;;;;;;1.00;1.00;;;;;22.62;30.37;102682.44;6301552;22;45362;-79
2023/05/17 07:53:32;;;;;;;;;3.00;1.33;;;;;22.64;29.98;102699.06;6304566;22;45236;-80
2023/05/17 07:55:57;;;;;;;;;0.33;0.33;;;;;22.52;29.88;102671.84;6305594;22;45420;-79
2023/05/17 07:58:22;;;;;;;;;1.00;1.00;;;;;22.59;30.15;102678.25;6305554;22;45234;-79
2023/05/17 08:00:48;;;;;;;;;2.67;1.33;;;;;22.64;29.65;102691.09;6305605;22;45265;-79
2023/05/17 08:03:13;;;;;;;;;0.67;0.33;;;;;22.66;30.10;102701.59;6305336;22;45309;-79
2023/05/17 08:05:38;;;;;;;;;1.00;1.00;;;;;22.62;29.56;102682.44;6305081;22;45414;-79
2023/05/17 08:08:04;;;;;;;;;1.00;1.00;;;;;22.59;29.60;102680.91;6305404;22;45357;-79
2023/05/17 08:10:29;;;;;;;;;2.00;2.00;;;;;22.68;29.43;102694.34;6304680;22;45305;-78
2023/05/17 08:12:55;;;;;;;;;1.00;0.67;;;;;22.66;29.63;102686.53;6305502;22;45231;-78
2023/05/17 08:15:20;;;;;;;;;1.00;1.00;;;;;22.68;29.40;102697.81;6305714;22;45237;-79
2023/05/17 08:17:46;;;;;;;;;1.00;1.00;;;;;22.69;29.72;102707.44;6304577;22;46997;-79
2023/05/17 08:20:11;;;;;;;;;4.00;2.00;;;;;22.70;29.60;102695.91;6304899;22;45323;-78
2023/05/17 08:22:37;;;;;;;;;1.00;1.00;;;;;22.62;29.44;102680.66;6304401;22;45224;-79
2023/05/17 08:25:03;;;;;;;;;3.67;1.33;;;;;22.70;29.23;102697.72;6305238;22;45435;-74
2023/05/17 08:27:30;;;;;;;;;3.33;0.00;;;;;22.63;29.27;102679.69;6304917;22;47471;-78
2023/05/17 08:29:56;;;;;;;;;1.00;1.00;;;;;22.70;29.04;102685.28;6304496;22;45357;-78
2023/05/17 08:32:22;;;;;;;;;1.00;1.00;;;;;22.65;29.58;102691.94;6304680;22;45241;-80
2023/05/17 08:34:48;;;;;;;;;1.00;1.00;;;;;22.61;29.07;102680.78;6304911;22;45225;-79
2023/05/17 08:37:13;;;;;;;;;0.00;0.00;;;;;22.69;29.38;102696.81;6304971;22;45300;-77
2023/05/17 08:39:39;;;;;;;;;1.00;1.00;;;;;22.60;28.93;102671.16;6304609;22;45425;-80
2023/05/17 08:42:07;;;;;;;;;0.67;0.67;;;;;22.43;29.62;102649.63;6304502;22;45330;-79
2023/05/17 08:44:32;;;;;;;;;2.00;0.67;;;;;22.62;28.92;102671.84;6305669;22;45313;-78
2023/05/17 08:46:59;;;;;;;;;0.00;0.00;;;;;22.69;29.36;102664.19;6303955;22;46833;-80
2023/05/17 08:49:27;;;;;;;;;0.00;0.00;;;;;22.74;29.41;102689.31;6305147;22;45244;-79
2023/05/17 08:51:54;;;;;;;;;1.00;1.00;;;;;22.76;28.82;102683.91;6303138;22;45737;-80
2023/05/17 08:54:19;;;;;;;;;1.00;1.00;;;;;22.78;28.97;102691.69;6304574;22;45332;-79
2023/05/17 08:56:51;;;;;;;;;1.00;1.00;;;;;22.73;29.09;102673.56;6304961;22;46024;-75
2023/05/17 08:59:18;;;;;;;;;1.00;1.00;;;;;22.72;29.12;102679.81;6305094;22;45352;-77
2023/05/17 09:01:47;;;;;;;;;1.00;1.00;;;;;22.81;28.79;102681.66;6304720;22;45439;-78
2023/05/17 09:04:12;;;;;;;;;0.33;0.33;;;;;22.81;29.31;102686.13;6304528;22;45485;-78
2023/05/17 09:06:38;;;;;;;;;1.00;1.00;;;;;22.71;28.80;102662.25;6303836;22;46913;-78
2023/05/17 09:09:06;;;;;;;;;1.00;1.00;;;;;22.84;28.78;102689.34;6304426;22;45272;-78
2023/05/17 09:11:32;;;;;;;;;1.00;1.00;;;;;22.87;29.35;102690.03;6305102;22;45244;-77
2023/05/17 09:13:59;;;;;;;;;0.67;0.67;;;;;22.87;29.30;102679.41;6304793;22;45536;-78
2023/05/17 09:16:27;;;;;;;;;0.33;0.00;;;;;22.78;28.79;102666.00;6304249;22;47151;-76
2023/05/17 09:18:57;;;;;;;;;1.00;1.00;;;;;22.85;29.45;102671.56;6304685;22;45295;-78
2023/05/17 09:21:23;;;;;;;;;2.33;1.00;;;;;22.82;28.76;102669.22;6304308;22;45330;-79
2023/05/17 09:23:50;;;;;;;;;1.00;1.00;;;;;22.90;29.23;102669.34;6304667;22;45454;-78
2023/05/17 09:26:17;;;;;;;;;0.67;0.67;;;;;22.91;28.98;102675.50;6304217;22;46032;-78
2023/05/17 09:28:43;;;;;;;;;0.00;0.00;;;;;22.92;29.24;102671.88;6304490;22;45207;-78
2023/05/17 09:31:12;;;;;;;;;0.33;0.33;;;;;22.83;29.00;102660.28;6304706;22;45241;-77
2023/05/17 09:33:48;;;;;;;;;0.00;0.00;;;;;22.91;29.31;102660.41;6304812;22;45304;-77
2023/05/17 09:36:22;;;;;;;;;2.00;0.00;;;;;22.92;29.56;102683.31;6304313;22;45451;-77
2023/05/17 09:38:58;;;;;;;;;0.00;0.00;;;;;22.84;28.81;102667.25;6303834;22;45384;-78
2023/05/17 09:41:30;;;;;;;;;1.33;0.67;;;;;22.87;29.00;102677.59;6305010;22;45299;-77
2023/05/17 09:44:08;;;;;;;;;1.00;1.00;;;;;22.65;29.10;102628.28;6304450;22;45369;-77
2023/05/17 09:46:33;;;;;;;;;1.00;1.00;;;;;22.92;29.32;102662.09;6304048;22;46149;-78
2023/05/17 09:49:01;;;;;;;;;1.00;1.00;;;;;22.90;29.07;102657.91;6304271;22;45297;-78
2023/05/17 09:51:31;;;;;;;;;0.00;0.00;;;;;22.93;29.13;102663.75;6304518;22;45337;-78
2023/05/17 09:53:58;;;;;;;;;0.00;0.00;;;;;22.94;28.90;102659.28;6304812;22;45319;-77
2023/05/17 09:56:27;;;;;;;;;0.67;0.67;;;;;22.85;29.41;102656.50;6303929;22;46033;-77
2023/05/17 09:58:52;;;;;;;;;3.00;1.00;;;;;22.90;29.14;102649.94;6302589;22;45323;-77
2023/05/17 10:01:18;;;;;;;;;0.00;0.00;;;;;22.89;29.48;102637.66;6304146;22;45154;-75
2023/05/17 10:03:43;;;;;;;;;1.33;1.00;;;;;22.99;29.43;102653.53;6302844;22;45412;-78
2023/05/17 10:06:09;;;;;;;;;0.00;0.00;;;;;22.91;29.34;102630.38;6304748;22;46199;-76
2023/05/17 10:08:37;;;;;;;;;1.33;1.33;;;;;22.94;29.63;102648.66;6304487;22;45205;-77
2023/05/17 10:11:08;;;;;;;;;5.33;2.00;;;;;22.99;29.74;102654.38;6304594;22;45351;-80
2023/05/17 10:13:40;;;;;;;;;1.00;1.00;;;;;23.00;29.76;102647.25;6305570;22;45360;-82
2023/05/17 10:16:06;;;;;;;;;1.33;1.00;;;;;23.02;29.91;102640.00;6304508;22;45288;-81
2023/05/17 10:18:32;;;;;;;;;2.67;1.00;;;;;22.92;29.95;102626.75;6304013;22;45250;-80
2023/05/17 10:21:00;;;;;;;;;1.00;1.00;;;;;23.01;29.87;102641.81;6304731;22;45169;-79
2023/05/17 10:23:26;;;;;;;;;0.00;0.00;;;;;23.01;29.68;102638.31;6305036;22;45319;-78
2023/05/17 10:25:52;;;;;;;;;1.00;1.00;;;;;23.01;30.06;102644.47;6304845;22;46354;-81
2023/05/17 10:28:19;;;;;;;;;1.00;1.00;;;;;22.98;30.04;102628.81;6304649;22;45386;-76
2023/05/17 10:30:46;;;;;;;;;1.67;1.33;;;;;23.00;30.09;102637.50;6304348;22;45351;-76
2023/05/17 10:33:13;;;;;;;;;1.00;1.00;;;;;23.02;29.88;102648.81;6304107;22;45445;-75
2023/05/17 10:35:42;;;;;;;;;1.00;1.00;;;;;22.99;29.94;102635.81;6304376;22;46255;-76
2023/05/17 10:38:07;;;;;;;;;1.00;1.00;;;;;23.04;29.67;102644.19;6302796;22;45292;-77
2023/05/17 10:40:35;;;;;;;;;2.00;1.00;;;;;23.00;30.14;102626.03;6304822;22;45315;-77
2023/05/17 10:43:03;;;;;;;;;5.00;2.00;;;;;23.04;30.33;102640.69;6304583;22;45156;-78
2023/05/17 10:45:28;;;;;;;;;1.00;1.00;;;;;22.91;29.88;102625.91;6304459;22;45429;-75
2023/05/17 10:47:54;;;;;;;;;4.00;1.00;;;;;22.85;29.74;102600.75;6303975;22;45240;-79
2023/05/17 10:50:25;;;;;;;;;1.67;1.33;;;;;23.00;30.23;102629.53;6304287;22;45140;-76
2023/05/17 10:52:54;;;;;;;;;1.33;1.33;;;;;22.98;30.41;102622.69;6304855;22;45307;-79
2023/05/17 10:55:35;;;;;;;;;2.67;1.67;;;;;22.96;30.40;102610.38;6304040;22;46503;-76
2023/05/17 10:58:09;;;;;;;;;1.00;1.00;;;;;22.98;29.91;102628.81;6304607;22;45295;-75
2023/05/17 11:00:40;;;;;;;;;3.00;2.00;;;;;22.96;29.99;102621.00;6304248;22;45414;-76
2023/05/17 11:03:19;;;;;;;;;3.67;2.00;;;;;22.91;30.01;102620.59;6304081;22;45229;-76
2023/05/17 11:06:10;;;;;;;;;2.00;1.00;;;;;22.93;30.09;102621.28;6303879;22;46881;-77
2023/05/17 11:08:41;;;;;;;;;3.00;1.00;;;;;22.74;30.65;102588.50;6303991;22;45274;-78
2023/05/17 11:11:11;;;;;;;;;1.00;1.00;;;;;22.74;30.23;102583.19;6304434;22;45285;-78
2023/05/17 11:13:52;;;;;;;;;2.00;2.00;;;;;22.83;30.29;102607.19;6304144;22;45419;-79
2023/05/17 11:16:20;;;;;;;;;3.67;2.67;;;;;22.79;30.57;102601.34;6303353;22;47233;-78
2023/05/17 11:18:53;;;;;;;;;2.67;2.00;;;;;22.78;30.30;102601.47;6303688;22;45280;-78
2023/05/17 11:21:21;;;;;;;;;4.00;2.00;;;;;22.85;30.18;102619.34;6304397;22;45174;-79
2023/05/17 11:23:48;;;;;;;;;2.00;2.00;;;;;22.76;30.28;102591.03;6304261;22;45438;-78